sensor_id;sensor_type;location;lat;lon;timestamp;pressure;altitude;pressure_sealevel;temperature;humidity
40992;BME280;29633;49.168;9.848;2023-06-26T00:02:14;96853.69;;;22.81;52.78
40992;BME280;29633;49.168;9.848;2023-06-26T00:04:39;96846.16;;;22.78;52.56
40992;BME280;29633;49.168;9.848;2023-06-26T00:07:05;96843.09;;;22.74;52.54
40992;BME280;29633;49.168;9.848;2023-06-26T00:09:31;96842.09;;;22.75;52.60
40992;BME280;29633;49.168;9.848;2023-06-26T00:11:56;96848.38;;;22.74;52.40
40992;BME280;29633;49.168;9.848;2023-06-26T00:14:22;96845.72;;;22.74;52.72
40992;BME280;29633;49.168;9.848;2023-06-26T00:16:47;96843.69;;;22.76;52.41
40992;BME280;29633;49.168;9.848;2023-06-26T00:19:16;96847.16;;;22.77;52.75
40992;BME280;29633;49.168;9.848;2023-06-26T00:21:41;96844.72;;;22.75;52.47
40992;BME280;29633;49.168;9.848;2023-06-26T00:24:16;96850.19;;;22.74;52.44
40992;BME280;29633;49.168;9.848;2023-06-26T00:26:42;96844.09;;;22.73;52.74
40992;BME280;29633;49.168;9.848;2023-06-26T00:29:08;96846.13;;;22.71;52.46
40992;BME280;29633;49.168;9.848;2023-06-26T00:31:34;96843.66;;;22.70;52.48
40992;BME280;29633;49.168;9.848;2023-06-26T00:34:01;96851.59;;;22.70;52.84
40992;BME280;29633;49.168;9.848;2023-06-26T00:36:29;96847.13;;;22.70;52.47
40992;BME280;29633;49.168;9.848;2023-06-26T00:38:55;96850.59;;;22.71;52.53
40992;BME280;29633;49.168;9.848;2023-06-26T00:41:20;96849.97;;;22.69;52.65
40992;BME280;29633;49.168;9.848;2023-06-26T00:43:46;96849.31;;;22.67;52.62
40992;BME280;29633;49.168;9.848;2023-06-26T00:46:13;96849.72;;;22.64;52.86
40992;BME280;29633;49.168;9.848;2023-06-26T00:48:40;96852.94;;;22.59;53.15
40992;BME280;29633;49.168;9.848;2023-06-26T00:51:07;96853.94;;;22.58;53.02
40992;BME280;29633;49.168;9.848;2023-06-26T00:53:33;96859.44;;;22.56;53.03
40992;BME280;29633;49.168;9.848;2023-06-26T00:55:59;96858.19;;;22.52;52.88
40992;BME280;29633;49.168;9.848;2023-06-26T00:58:25;96850.84;;;22.48;53.02
40992;BME280;29633;49.168;9.848;2023-06-26T01:00:52;96856.53;;;22.45;52.94
40992;BME280;29633;49.168;9.848;2023-06-26T01:03:19;96857.94;;;22.41;52.97
40992;BME280;29633;49.168;9.848;2023-06-26T01:05:45;96849.56;;;22.37;53.08
40992;BME280;29633;49.168;9.848;2023-06-26T01:08:16;96847.94;;;22.36;53.47
40992;BME280;29633;49.168;9.848;2023-06-26T01:10:42;96853.44;;;22.35;53.32
40992;BME280;29633;49.168;9.848;2023-06-26T01:13:08;96848.72;;;22.30;53.08
40992;BME280;29633;49.168;9.848;2023-06-26T01:15:34;96857.88;;;22.28;53.26
40992;BME280;29633;49.168;9.848;2023-06-26T01:18:00;96842.84;;;22.28;53.10
40992;BME280;29633;49.168;9.848;2023-06-26T01:20:32;96843.84;;;22.27;53.33
40992;BME280;29633;49.168;9.848;2023-06-26T01:23:05;96839.13;;;22.23;53.48
40992;BME280;29633;49.168;9.848;2023-06-26T01:25:48;96840.72;;;22.17;53.66
40992;BME280;29633;49.168;9.848;2023-06-26T01:28:17;96834.22;;;22.13;53.62
40992;BME280;29633;49.168;9.848;2023-06-26T01:30:45;96834.81;;;22.15;53.25
40992;BME280;29633;49.168;9.848;2023-06-26T01:33:12;96826.28;;;22.13;53.54
40992;BME280;29633;49.168;9.848;2023-06-26T01:35:38;96826.72;;;22.17;53.17
40992;BME280;29633;49.168;9.848;2023-06-26T01:38:17;96816.53;;;22.14;53.37
40992;BME280;29633;49.168;9.848;2023-06-26T01:40:43;96815.34;;;22.16;53.14
40992;BME280;29633;49.168;9.848;2023-06-26T01:43:18;96822.03;;;22.19;53.50
40992;BME280;29633;49.168;9.848;2023-06-26T01:45:48;96815.13;;;22.18;53.29
40992;BME280;29633;49.168;9.848;2023-06-26T01:48:16;96818.78;;;22.17;53.33
40992;BME280;29633;49.168;9.848;2023-06-26T01:50:42;96815.34;;;22.16;53.32
40992;BME280;29633;49.168;9.848;2023-06-26T01:53:16;96811.69;;;22.17;53.29
40992;BME280;29633;49.168;9.848;2023-06-26T01:56:08;96814.31;;;22.17;53.36
40992;BME280;29633;49.168;9.848;2023-06-26T01:58:38;96811.88;;;22.16;53.36
40992;BME280;29633;49.168;9.848;2023-06-26T02:01:06;96817.34;;;22.14;53.25
40992;BME280;29633;49.168;9.848;2023-06-26T02:03:31;96817.72;;;22.11;53.72
40992;BME280;29633;49.168;9.848;2023-06-26T02:05:57;96810.84;;;22.10;53.64
40992;BME280;29633;49.168;9.848;2023-06-26T02:08:23;96812.66;;;22.10;53.74
40992;BME280;29633;49.168;9.848;2023-06-26T02:10:48;96813.25;;;22.12;53.25
40992;BME280;29633;49.168;9.848;2023-06-26T02:13:14;96810.84;;;22.10;53.22
40992;BME280;29633;49.168;9.848;2023-06-26T02:15:40;96809.38;;;22.07;53.46
40992;BME280;29633;49.168;9.848;2023-06-26T02:18:05;96809.19;;;22.09;53.34
40992;BME280;29633;49.168;9.848;2023-06-26T02:20:31;96808.97;;;22.11;53.58
40992;BME280;29633;49.168;9.848;2023-06-26T02:22:58;96804.72;;;22.10;53.35
40992;BME280;29633;49.168;9.848;2023-06-26T02:25:24;96809.81;;;22.11;53.41
40992;BME280;29633;49.168;9.848;2023-06-26T02:27:50;96809.19;;;22.09;53.68
40992;BME280;29633;49.168;9.848;2023-06-26T02:30:15;96803.28;;;22.07;53.57
40992;BME280;29633;49.168;9.848;2023-06-26T02:32:43;96811.19;;;22.07;53.76
40992;BME280;29633;49.168;9.848;2023-06-26T02:35:09;96807.94;;;22.05;53.42
40992;BME280;29633;49.168;9.848;2023-06-26T02:37:35;96811.59;;;22.04;53.92
40992;BME280;29633;49.168;9.848;2023-06-26T02:40:00;96806.69;;;22.01;53.58
40992;BME280;29633;49.168;9.848;2023-06-26T02:42:26;96806.09;;;21.99;53.78
40992;BME280;29633;49.168;9.848;2023-06-26T02:44:51;96801.59;;;21.99;53.69
40992;BME280;29633;49.168;9.848;2023-06-26T02:47:17;96801.59;;;21.99;54.01
40992;BME280;29633;49.168;9.848;2023-06-26T02:49:43;96800.81;;;21.99;53.77
40992;BME280;29633;49.168;9.848;2023-06-26T02:52:08;96809.31;;;21.94;53.67
40992;BME280;29633;49.168;9.848;2023-06-26T02:54:34;96804.19;;;21.93;53.94
40992;BME280;29633;49.168;9.848;2023-06-26T02:57:00;96806.84;;;21.93;53.74
40992;BME280;29633;49.168;9.848;2023-06-26T02:59:26;96810.31;;;21.93;53.68
40992;BME280;29633;49.168;9.848;2023-06-26T03:01:51;96808.66;;;21.92;53.95
40992;BME280;29633;49.168;9.848;2023-06-26T03:04:17;96801.09;;;21.89;53.78
40992;BME280;29633;49.168;9.848;2023-06-26T03:06:43;96806.16;;;21.84;54.08
40992;BME280;29633;49.168;9.848;2023-06-26T03:09:09;96800.38;;;21.74;54.21
40992;BME280;29633;49.168;9.848;2023-06-26T03:11:35;96803.63;;;21.70;53.95
40992;BME280;29633;49.168;9.848;2023-06-26T03:14:00;96806.00;;;21.65;53.96
40992;BME280;29633;49.168;9.848;2023-06-26T03:16:26;96791.16;;;21.64;53.92
40992;BME280;29633;49.168;9.848;2023-06-26T03:18:52;96799.47;;;21.60;54.17
40992;BME280;29633;49.168;9.848;2023-06-26T03:21:17;96788.91;;;21.60;53.97
40992;BME280;29633;49.168;9.848;2023-06-26T03:23:43;96798.66;;;21.60;53.86
40992;BME280;29633;49.168;9.848;2023-06-26T03:26:08;96802.09;;;21.60;54.01
40992;BME280;29633;49.168;9.848;2023-06-26T03:28:34;96809.84;;;21.62;54.32
40992;BME280;29633;49.168;9.848;2023-06-26T03:31:00;96804.56;;;21.62;54.16
40992;BME280;29633;49.168;9.848;2023-06-26T03:33:26;96801.13;;;21.62;54.28
40992;BME280;29633;49.168;9.848;2023-06-26T03:35:51;96802.75;;;21.63;54.31
40992;BME280;29633;49.168;9.848;2023-06-26T03:38:17;96797.47;;;21.63;53.95
40992;BME280;29633;49.168;9.848;2023-06-26T03:40:43;96802.75;;;21.63;53.94
40992;BME280;29633;49.168;9.848;2023-06-26T03:43:08;96793.19;;;21.62;54.01
40992;BME280;29633;49.168;9.848;2023-06-26T03:45:34;96787.91;;;21.62;54.01
40992;BME280;29633;49.168;9.848;2023-06-26T03:48:00;96789.56;;;21.63;54.31
40992;BME280;29633;49.168;9.848;2023-06-26T03:50:25;96783.47;;;21.62;54.35
40992;BME280;29633;49.168;9.848;2023-06-26T03:52:51;96797.28;;;21.64;54.17
40992;BME280;29633;49.168;9.848;2023-06-26T03:55:17;96794.63;;;21.64;54.32
40992;BME280;29633;49.168;9.848;2023-06-26T03:57:43;96794.84;;;21.63;54.12
40992;BME280;29633;49.168;9.848;2023-06-26T04:00:09;96801.28;;;21.60;54.06
40992;BME280;29633;49.168;9.848;2023-06-26T04:02:35;96799.69;;;21.59;54.38
40992;BME280;29633;49.168;9.848;2023-06-26T04:05:01;96805.78;;;21.59;54.42
40992;BME280;29633;49.168;9.848;2023-06-26T04:07:28;96802.09;;;21.60;54.30
40992;BME280;29633;49.168;9.848;2023-06-26T04:09:54;96803.56;;;21.63;54.55
40992;BME280;29633;49.168;9.848;2023-06-26T04:12:20;96804.00;;;21.67;54.25
40992;BME280;29633;49.168;9.848;2023-06-26T04:14:45;96803.63;;;21.70;54.18
40992;BME280;29633;49.168;9.848;2023-06-26T04:17:11;96808.50;;;21.73;54.27
40992;BME280;29633;49.168;9.848;2023-06-26T04:19:37;96795.75;;;21.76;54.63
40992;BME280;29633;49.168;9.848;2023-06-26T04:22:02;96799.81;;;21.79;54.45
40992;BME280;29633;49.168;9.848;2023-06-26T04:24:28;96806.72;;;21.80;54.34
40992;BME280;29633;49.168;9.848;2023-06-26T04:26:54;96804.34;;;21.85;54.51
40992;BME280;29633;49.168;9.848;2023-06-26T04:29:23;96805.56;;;21.89;54.48
40992;BME280;29633;49.168;9.848;2023-06-26T04:31:51;96803.19;;;21.94;54.52
40992;BME280;29633;49.168;9.848;2023-06-26T04:34:17;96808.09;;;21.97;54.34
40992;BME280;29633;49.168;9.848;2023-06-26T04:36:43;96798.97;;;21.99;54.31
40992;BME280;29633;49.168;9.848;2023-06-26T04:39:14;96801.03;;;22.04;54.31
40992;BME280;29633;49.168;9.848;2023-06-26T04:41:40;96799.63;;;22.08;54.24
40992;BME280;29633;49.168;9.848;2023-06-26T04:44:06;96797.25;;;22.13;54.48
40992;BME280;29633;49.168;9.848;2023-06-26T04:46:32;96799.09;;;22.19;54.16
40992;BME280;29633;49.168;9.848;2023-06-26T04:48:57;96802.75;;;22.25;54.26
40992;BME280;29633;49.168;9.848;2023-06-26T04:51:24;96804.81;;;22.29;54.06
40992;BME280;29633;49.168;9.848;2023-06-26T04:53:52;96798.97;;;22.34;54.46
40992;BME280;29633;49.168;9.848;2023-06-26T04:56:18;96799.38;;;22.37;54.22
40992;BME280;29633;49.168;9.848;2023-06-26T04:58:44;96801.44;;;22.42;54.28
40992;BME280;29633;49.168;9.848;2023-06-26T05:01:09;96797.00;;;22.49;54.34
40992;BME280;29633;49.168;9.848;2023-06-26T05:03:35;96798.03;;;22.54;54.65
40992;BME280;29633;49.168;9.848;2023-06-26T05:06:02;96793.59;;;22.62;54.18
40992;BME280;29633;49.168;9.848;2023-06-26T05:08:27;96795.28;;;22.69;54.24
40992;BME280;29633;49.168;9.848;2023-06-26T05:10:53;96799.97;;;22.74;54.26
40992;BME280;29633;49.168;9.848;2023-06-26T05:13:23;96800.81;;;22.81;54.04
40992;BME280;29633;49.168;9.848;2023-06-26T05:15:49;96801.66;;;22.88;54.17
40992;BME280;29633;49.168;9.848;2023-06-26T05:18:17;96798.81;;;22.96;54.00
40992;BME280;29633;49.168;9.848;2023-06-26T05:20:43;96803.31;;;23.02;54.06
40992;BME280;29633;49.168;9.848;2023-06-26T05:23:08;96791.91;;;23.08;54.07
40992;BME280;29633;49.168;9.848;2023-06-26T05:25:35;96792.75;;;23.15;54.02
40992;BME280;29633;49.168;9.848;2023-06-26T05:28:01;96793.38;;;23.24;53.80
40992;BME280;29633;49.168;9.848;2023-06-26T05:30:27;96788.91;;;23.31;53.81
40992;BME280;29633;49.168;9.848;2023-06-26T05:32:53;96795.84;;;23.38;54.00
40992;BME280;29633;49.168;9.848;2023-06-26T05:35:23;96795.69;;;23.46;54.24
40992;BME280;29633;49.168;9.848;2023-06-26T05:37:49;96798.13;;;23.55;53.95
40992;BME280;29633;49.168;9.848;2023-06-26T05:40:16;96798.94;;;23.62;53.93
40992;BME280;29633;49.168;9.848;2023-06-26T05:42:43;96803.41;;;23.68;54.22
40992;BME280;29633;49.168;9.848;2023-06-26T05:45:09;96808.69;;;23.74;53.86
40992;BME280;29633;49.168;9.848;2023-06-26T05:47:35;96806.03;;;23.81;54.25
40992;BME280;29633;49.168;9.848;2023-06-26T05:50:01;96802.59;;;23.87;53.90
40992;BME280;29633;49.168;9.848;2023-06-26T05:52:27;96804.00;;;23.96;53.74
40992;BME280;29633;49.168;9.848;2023-06-26T05:54:53;96807.25;;;24.05;53.90
40992;BME280;29633;49.168;9.848;2023-06-26T05:57:20;96805.41;;;24.12;54.09
40992;BME280;29633;49.168;9.848;2023-06-26T05:59:46;96806.00;;;24.20;53.92
40992;BME280;29633;49.168;9.848;2023-06-26T06:02:11;96801.50;;;24.27;53.88
40992;BME280;29633;49.168;9.848;2023-06-26T06:04:37;96808.63;;;24.33;53.97
40992;BME280;29633;49.168;9.848;2023-06-26T06:07:03;96801.06;;;24.43;53.92
40992;BME280;29633;49.168;9.848;2023-06-26T06:09:29;96802.47;;;24.53;53.94
40992;BME280;29633;49.168;9.848;2023-06-26T06:11:54;96802.22;;;24.61;54.07
40992;BME280;29633;49.168;9.848;2023-06-26T06:14:20;96800.34;;;24.68;53.81
40992;BME280;29633;49.168;9.848;2023-06-26T06:16:46;96802.34;;;24.79;53.83
40992;BME280;29633;49.168;9.848;2023-06-26T06:19:11;96802.94;;;24.87;53.84
40992;BME280;29633;49.168;9.848;2023-06-26T06:21:39;96802.72;;;24.95;54.00
40992;BME280;29633;49.168;9.848;2023-06-26T06:24:05;96803.88;;;25.06;53.90
40992;BME280;29633;49.168;9.848;2023-06-26T06:26:32;96803.41;;;25.16;53.96
40992;BME280;29633;49.168;9.848;2023-06-26T06:28:58;96802.91;;;25.25;53.96
40992;BME280;29633;49.168;9.848;2023-06-26T06:31:23;96796.09;;;25.36;53.86
40992;BME280;29633;49.168;9.848;2023-06-26T06:33:49;96798.50;;;25.44;54.06
40992;BME280;29633;49.168;9.848;2023-06-26T06:36:14;96806.03;;;25.54;54.08
40992;BME280;29633;49.168;9.848;2023-06-26T06:38:43;96803.91;;;25.62;53.82
40992;BME280;29633;49.168;9.848;2023-06-26T06:41:09;96803.19;;;25.73;53.87
40992;BME280;29633;49.168;9.848;2023-06-26T06:43:35;96811.72;;;25.82;53.73
40992;BME280;29633;49.168;9.848;2023-06-26T06:46:02;96801.84;;;25.89;53.76
40992;BME280;29633;49.168;9.848;2023-06-26T06:48:27;96806.88;;;25.97;53.80
40992;BME280;29633;49.168;9.848;2023-06-26T06:50:53;96812.50;;;26.07;53.72
40992;BME280;29633;49.168;9.848;2023-06-26T06:53:19;96807.94;;;26.14;53.86
40992;BME280;29633;49.168;9.848;2023-06-26T06:55:46;96813.00;;;26.22;53.72
40992;BME280;29633;49.168;9.848;2023-06-26T06:58:11;96807.38;;;26.30;53.81
40992;BME280;29633;49.168;9.848;2023-06-26T07:00:37;96809.53;;;26.40;53.65
40992;BME280;29633;49.168;9.848;2023-06-26T07:03:03;96804.28;;;26.52;53.54
40992;BME280;29633;49.168;9.848;2023-06-26T07:05:29;96804.78;;;26.60;53.72
40992;BME280;29633;49.168;9.848;2023-06-26T07:07:55;96813.75;;;26.66;53.60
40992;BME280;29633;49.168;9.848;2023-06-26T07:10:21;96815.50;;;26.72;53.65
40992;BME280;29633;49.168;9.848;2023-06-26T07:12:46;96810.47;;;26.82;53.72
40992;BME280;29633;49.168;9.848;2023-06-26T07:15:12;96811.81;;;26.91;53.66
40992;BME280;29633;49.168;9.848;2023-06-26T07:17:37;96807.59;;;27.02;53.73
40992;BME280;29633;49.168;9.848;2023-06-26T07:20:05;96807.03;;;27.11;53.56
40992;BME280;29633;49.168;9.848;2023-06-26T07:22:36;96807.75;;;27.18;53.47
40992;BME280;29633;49.168;9.848;2023-06-26T07:25:02;96797.34;;;27.28;53.64
40992;BME280;29633;49.168;9.848;2023-06-26T07:27:29;96805.16;;;27.42;53.45
40992;BME280;29633;49.168;9.848;2023-06-26T07:29:55;96808.69;;;27.54;53.47
40992;BME280;29633;49.168;9.848;2023-06-26T07:32:20;96806.72;;;27.61;53.37
40992;BME280;29633;49.168;9.848;2023-06-26T07:34:46;96801.75;;;27.64;53.33
40992;BME280;29633;49.168;9.848;2023-06-26T07:37:11;96810.00;;;27.74;53.50
40992;BME280;29633;49.168;9.848;2023-06-26T07:39:37;96815.31;;;27.86;53.27
40992;BME280;29633;49.168;9.848;2023-06-26T07:42:03;96810.00;;;27.98;53.36
40992;BME280;29633;49.168;9.848;2023-06-26T07:44:28;96810.47;;;28.06;53.15
40992;BME280;29633;49.168;9.848;2023-06-26T07:46:54;96817.69;;;28.17;53.21
40992;BME280;29633;49.168;9.848;2023-06-26T07:49:20;96820.22;;;28.24;53.34
40992;BME280;29633;49.168;9.848;2023-06-26T07:51:45;96812.44;;;28.34;53.29
40992;BME280;29633;49.168;9.848;2023-06-26T07:54:11;96819.63;;;28.45;53.12
40992;BME280;29633;49.168;9.848;2023-06-26T07:57:01;96807.31;;;28.56;53.24
40992;BME280;29633;49.168;9.848;2023-06-26T07:59:28;96816.69;;;28.70;52.95
40992;BME280;29633;49.168;9.848;2023-06-26T08:01:55;96812.16;;;28.82;52.93
40992;BME280;29633;49.168;9.848;2023-06-26T08:04:27;96807.81;;;28.93;52.76
40992;BME280;29633;49.168;9.848;2023-06-26T08:06:54;96811.00;;;29.06;52.84
40992;BME280;29633;49.168;9.848;2023-06-26T08:09:25;96810.13;;;29.17;52.80
40992;BME280;29633;49.168;9.848;2023-06-26T08:11:51;96800.81;;;29.31;52.65
40992;BME280;29633;49.168;9.848;2023-06-26T08:14:16;96801.78;;;29.42;52.78
40992;BME280;29633;49.168;9.848;2023-06-26T08:16:43;96810.56;;;29.54;52.85
40992;BME280;29633;49.168;9.848;2023-06-26T08:19:10;96802.72;;;29.64;52.42
40992;BME280;29633;49.168;9.848;2023-06-26T08:21:35;96800.44;;;29.73;52.17
40992;BME280;29633;49.168;9.848;2023-06-26T08:24:01;96800.84;;;29.81;52.44
40992;BME280;29633;49.168;9.848;2023-06-26T08:26:27;96806.41;;;29.92;52.49
40992;BME280;29633;49.168;9.848;2023-06-26T08:28:53;96804.09;;;30.00;52.15
40992;BME280;29633;49.168;9.848;2023-06-26T08:31:19;96807.19;;;30.09;52.13
40992;BME280;29633;49.168;9.848;2023-06-26T08:33:54;96805.94;;;30.16;52.47
40992;BME280;29633;49.168;9.848;2023-06-26T08:36:19;96802.84;;;30.24;52.13
40992;BME280;29633;49.168;9.848;2023-06-26T08:38:48;96795.44;;;30.32;52.28
40992;BME280;29633;49.168;9.848;2023-06-26T08:41:14;96808.41;;;30.40;51.95
40992;BME280;29633;49.168;9.848;2023-06-26T08:43:39;96800.53;;;30.50;52.27
40992;BME280;29633;49.168;9.848;2023-06-26T08:46:05;96790.44;;;30.57;51.79
40992;BME280;29633;49.168;9.848;2023-06-26T08:48:32;96791.13;;;30.69;51.72
40992;BME280;29633;49.168;9.848;2023-06-26T08:51:07;96793.38;;;30.77;51.66
40992;BME280;29633;49.168;9.848;2023-06-26T08:53:43;96789.75;;;30.88;51.97
40992;BME280;29633;49.168;9.848;2023-06-26T08:56:15;96799.59;;;31.04;51.73
40992;BME280;29633;49.168;9.848;2023-06-26T08:58:42;96803.47;;;31.13;51.69
40992;BME280;29633;49.168;9.848;2023-06-26T09:01:08;96802.50;;;31.24;51.64
40992;BME280;29633;49.168;9.848;2023-06-26T09:03:34;96795.56;;;31.29;51.46
40992;BME280;29633;49.168;9.848;2023-06-26T09:06:00;96795.97;;;31.42;51.11
40992;BME280;29633;49.168;9.848;2023-06-26T09:08:26;96791.03;;;31.56;51.23
40992;BME280;29633;49.168;9.848;2023-06-26T09:10:52;96795.41;;;31.67;51.08
40992;BME280;29633;49.168;9.848;2023-06-26T09:13:18;96792.28;;;31.80;51.23
40992;BME280;29633;49.168;9.848;2023-06-26T09:15:45;96795.34;;;31.94;51.30
40992;BME280;29633;49.168;9.848;2023-06-26T09:18:11;96794.59;;;32.03;50.82
40992;BME280;29633;49.168;9.848;2023-06-26T09:20:37;96787.41;;;32.09;50.66
40992;BME280;29633;49.168;9.848;2023-06-26T09:23:03;96797.13;;;32.15;51.18
40992;BME280;29633;49.168;9.848;2023-06-26T09:25:28;96796.59;;;32.18;50.77
40992;BME280;29633;49.168;9.848;2023-06-26T09:27:55;96791.81;;;32.25;50.63
40992;BME280;29633;49.168;9.848;2023-06-26T09:30:21;96793.19;;;32.33;50.52
40992;BME280;29633;49.168;9.848;2023-06-26T09:32:47;96790.56;;;32.43;50.56
40992;BME280;29633;49.168;9.848;2023-06-26T09:35:13;96789.22;;;32.45;50.64
40992;BME280;29633;49.168;9.848;2023-06-26T09:37:39;96787.66;;;32.54;50.66
40992;BME280;29633;49.168;9.848;2023-06-26T09:40:06;96786.38;;;32.62;50.40
40992;BME280;29633;49.168;9.848;2023-06-26T09:42:32;96781.31;;;32.71;50.52
40992;BME280;29633;49.168;9.848;2023-06-26T09:44:58;96782.97;;;32.82;50.15
40992;BME280;29633;49.168;9.848;2023-06-26T09:47:23;96784.06;;;32.91;50.01
40992;BME280;29633;49.168;9.848;2023-06-26T09:49:49;96778.69;;;32.96;50.19
40992;BME280;29633;49.168;9.848;2023-06-26T09:52:16;96771.22;;;33.08;49.90
40992;BME280;29633;49.168;9.848;2023-06-26T09:54:43;96770.72;;;33.16;49.99
40992;BME280;29633;49.168;9.848;2023-06-26T09:57:13;96769.94;;;33.21;49.83
40992;BME280;29633;49.168;9.848;2023-06-26T09:59:41;96767.78;;;33.28;49.72
40992;BME280;29633;49.168;9.848;2023-06-26T10:02:07;96768.06;;;33.36;49.73
40992;BME280;29633;49.168;9.848;2023-06-26T10:04:34;96770.22;;;33.44;49.62
40992;BME280;29633;49.168;9.848;2023-06-26T10:07:10;96777.75;;;33.52;49.45
40992;BME280;29633;49.168;9.848;2023-06-26T10:09:40;96774.53;;;33.60;49.35
40992;BME280;29633;49.168;9.848;2023-06-26T10:12:07;96770.25;;;33.70;49.33
40992;BME280;29633;49.168;9.848;2023-06-26T10:14:39;96778.03;;;33.76;49.56
40992;BME280;29633;49.168;9.848;2023-06-26T10:17:10;96777.22;;;33.81;49.32
40992;BME280;29633;49.168;9.848;2023-06-26T10:19:40;96774.28;;;33.92;49.45
40992;BME280;29633;49.168;9.848;2023-06-26T10:22:08;96776.69;;;34.04;49.05
40992;BME280;29633;49.168;9.848;2023-06-26T10:24:35;96786.88;;;34.12;48.97
40992;BME280;29633;49.168;9.848;2023-06-26T10:27:20;96794.97;;;34.17;48.98
40992;BME280;29633;49.168;9.848;2023-06-26T10:29:58;96785.81;;;34.23;49.01
40992;BME280;29633;49.168;9.848;2023-06-26T10:32:26;96785.00;;;34.28;48.95
40992;BME280;29633;49.168;9.848;2023-06-26T10:34:53;96787.94;;;34.31;48.96
40992;BME280;29633;49.168;9.848;2023-06-26T10:37:20;96785.50;;;34.35;48.43
40992;BME280;29633;49.168;9.848;2023-06-26T10:39:50;96787.41;;;34.29;48.30
40992;BME280;29633;49.168;9.848;2023-06-26T10:42:20;96796.31;;;34.25;48.42
40992;BME280;29633;49.168;9.848;2023-06-26T10:44:53;96795.50;;;34.24;48.32
40992;BME280;29633;49.168;9.848;2023-06-26T10:47:32;96794.94;;;34.32;48.51
40992;BME280;29633;49.168;9.848;2023-06-26T10:52:43;96798.97;;;34.30;48.26
40992;BME280;29633;49.168;9.848;2023-06-26T10:55:09;96789.81;;;34.31;48.57
40992;BME280;29633;49.168;9.848;2023-06-26T10:57:36;96787.94;;;34.36;48.24
40992;BME280;29633;49.168;9.848;2023-06-26T11:00:13;96798.69;;;34.36;48.41
40992;BME280;29633;49.168;9.848;2023-06-26T11:02:49;96788.72;;;34.42;48.40
40992;BME280;29633;49.168;9.848;2023-06-26T11:05:29;96787.59;;;34.53;47.89
40992;BME280;29633;49.168;9.848;2023-06-26T11:08:10;96780.53;;;34.62;48.01
40992;BME280;29633;49.168;9.848;2023-06-26T11:10:51;96793.47;;;34.75;47.94
40992;BME280;29633;49.168;9.848;2023-06-26T11:13:19;96783.22;;;34.77;47.88
40992;BME280;29633;49.168;9.848;2023-06-26T11:15:47;96786.97;;;34.81;47.55
40992;BME280;29633;49.168;9.848;2023-06-26T11:18:14;96782.91;;;34.84;47.81
40992;BME280;29633;49.168;9.848;2023-06-26T11:20:40;96782.63;;;34.90;47.68
40992;BME280;29633;49.168;9.848;2023-06-26T11:23:07;96788.22;;;34.99;47.57
40992;BME280;29633;49.168;9.848;2023-06-26T11:25:35;96783.63;;;35.04;47.51
40992;BME280;29633;49.168;9.848;2023-06-26T11:28:01;96781.16;;;35.13;47.61
40992;BME280;29633;49.168;9.848;2023-06-26T11:30:26;96776.81;;;35.17;47.28
40992;BME280;29633;49.168;9.848;2023-06-26T11:32:52;96781.91;;;35.24;47.53
40992;BME280;29633;49.168;9.848;2023-06-26T11:35:25;96782.94;;;35.33;47.75
40992;BME280;29633;49.168;9.848;2023-06-26T11:38:02;96783.94;;;35.42;47.72
40992;BME280;29633;49.168;9.848;2023-06-26T11:40:34;96775.78;;;35.52;47.53
40992;BME280;29633;49.168;9.848;2023-06-26T11:43:01;96777.06;;;35.60;47.21
40992;BME280;29633;49.168;9.848;2023-06-26T11:45:28;96778.66;;;35.66;47.49
40992;BME280;29633;49.168;9.848;2023-06-26T11:47:55;96788.94;;;35.59;47.54
40992;BME280;29633;49.168;9.848;2023-06-26T11:50:22;96778.25;;;35.48;47.60
40992;BME280;29633;49.168;9.848;2023-06-26T11:52:58;96781.22;;;35.42;47.37
40992;BME280;29633;49.168;9.848;2023-06-26T11:55:25;96777.44;;;35.48;47.53
40992;BME280;29633;49.168;9.848;2023-06-26T11:57:52;96768.22;;;35.49;47.63
40992;BME280;29633;49.168;9.848;2023-06-26T12:00:18;96783.88;;;35.52;47.42
40992;BME280;29633;49.168;9.848;2023-06-26T12:02:45;96780.41;;;35.46;47.18
40992;BME280;29633;49.168;9.848;2023-06-26T12:05:13;96775.91;;;35.37;47.45
40992;BME280;29633;49.168;9.848;2023-06-26T12:07:40;96777.00;;;35.31;47.35
40992;BME280;29633;49.168;9.848;2023-06-26T12:10:06;96775.97;;;35.27;47.38
40992;BME280;29633;49.168;9.848;2023-06-26T12:12:34;96784.31;;;35.30;47.25
40992;BME280;29633;49.168;9.848;2023-06-26T12:15:00;96797.22;;;35.33;47.28
40992;BME280;29633;49.168;9.848;2023-06-26T12:17:26;96790.22;;;35.32;47.28
40992;BME280;29633;49.168;9.848;2023-06-26T12:19:52;96797.22;;;35.33;47.04
40992;BME280;29633;49.168;9.848;2023-06-26T12:22:18;96789.97;;;35.29;47.33
40992;BME280;29633;49.168;9.848;2023-06-26T12:24:44;96784.31;;;35.30;47.40
40992;BME280;29633;49.168;9.848;2023-06-26T12:27:12;96792.09;;;35.32;47.28
40992;BME280;29633;49.168;9.848;2023-06-26T12:29:39;96796.41;;;35.33;46.98
40992;BME280;29633;49.168;9.848;2023-06-26T12:32:08;96795.84;;;35.36;47.11
40992;BME280;29633;49.168;9.848;2023-06-26T12:34:36;96792.63;;;35.34;46.88
40992;BME280;29633;49.168;9.848;2023-06-26T12:37:07;96795.09;;;35.30;46.95
40992;BME280;29633;49.168;9.848;2023-06-26T12:39:53;96793.22;;;35.26;47.23
40992;BME280;29633;49.168;9.848;2023-06-26T12:42:20;96789.22;;;35.23;47.31
40992;BME280;29633;49.168;9.848;2023-06-26T12:44:46;96794.63;;;35.18;47.34
40992;BME280;29633;49.168;9.848;2023-06-26T12:47:13;96786.78;;;35.17;47.38
40992;BME280;29633;49.168;9.848;2023-06-26T12:49:41;96788.16;;;35.14;47.33
40992;BME280;29633;49.168;9.848;2023-06-26T12:52:14;96793.28;;;35.16;47.47
40992;BME280;29633;49.168;9.848;2023-06-26T12:54:44;96775.00;;;35.13;47.30
40992;BME280;29633;49.168;9.848;2023-06-26T12:57:12;96779.28;;;35.14;47.06
40992;BME280;29633;49.168;9.848;2023-06-26T12:59:39;96777.09;;;35.11;47.54
40992;BME280;29633;49.168;9.848;2023-06-26T13:02:05;96775.00;;;35.13;47.13
40992;BME280;29633;49.168;9.848;2023-06-26T13:04:32;96773.91;;;35.08;47.45